sensor_id;sensor_type;location;lat;lon;timestamp;P1;durP1;ratioP1;P2;durP2;ratioP2
47669;SDS011;33408;52.062;11.722;2022-07-04T15:13:11;1.80;;;0.77;;
47669;SDS011;33408;52.062;11.722;2022-07-04T15:15:39;1.60;;;0.60;;
47669;SDS011;33408;52.062;11.722;2022-07-04T15:18:06;2.28;;;0.80;;
47669;SDS011;33408;52.062;11.722;2022-07-04T15:20:33;3.97;;;1.20;;
47669;SDS011;33408;52.062;11.722;2022-07-04T15:23:17;2.28;;;0.60;;
47669;SDS011;33408;52.062;11.722;2022-07-04T15:26:01;1.25;;;0.50;;
47669;SDS011;33408;52.062;11.722;2022-07-04T15:28:29;2.28;;;0.68;;
47669;SDS011;33408;52.062;11.722;2022-07-04T15:30:56;3.05;;;0.80;;
47669;SDS011;33408;52.062;11.722;2022-07-04T15:33:22;1.85;;;0.70;;
47669;SDS011;33408;52.062;11.722;2022-07-04T15:35:51;1.00;;;0.45;;
47669;SDS011;33408;52.062;11.722;2022-07-04T15:38:20;1.95;;;0.60;;
47669;SDS011;33408;52.062;11.722;2022-07-04T15:40:48;3.03;;;1.08;;
47669;SDS011;33408;52.062;11.722;2022-07-04T15:43:15;4.13;;;1.05;;
47669;SDS011;33408;52.062;11.722;2022-07-04T15:45:43;0.82;;;0.30;;
47669;SDS011;33408;52.062;11.722;2022-07-04T15:48:10;3.30;;;0.75;;
47669;SDS011;33408;52.062;11.722;2022-07-04T15:50:36;3.00;;;0.50;;
47669;SDS011;33408;52.062;11.722;2022-07-04T15:53:03;2.05;;;0.75;;
47669;SDS011;33408;52.062;11.722;2022-07-04T15:55:29;1.05;;;0.43;;
47669;SDS011;33408;52.062;11.722;2022-07-04T15:57:56;1.55;;;0.50;;
47669;SDS011;33408;52.062;11.722;2022-07-04T16:00:23;1.23;;;0.60;;
47669;SDS011;33408;52.062;11.722;2022-07-04T16:02:51;4.25;;;0.60;;
47669;SDS011;33408;52.062;11.722;2022-07-04T16:05:18;1.67;;;0.80;;
47669;SDS011;33408;52.062;11.722;2022-07-04T16:07:45;3.15;;;0.77;;
47669;SDS011;33408;52.062;11.722;2022-07-04T16:10:11;0.77;;;0.43;;
47669;SDS011;33408;52.062;11.722;2022-07-04T16:12:38;3.10;;;0.63;;
47669;SDS011;33408;52.062;11.722;2022-07-04T16:15:05;4.20;;;0.70;;
47669;SDS011;33408;52.062;11.722;2022-07-04T16:17:33;3.30;;;0.70;;
47669;SDS011;33408;52.062;11.722;2022-07-04T16:20:01;1.27;;;0.50;;
47669;SDS011;33408;52.062;11.722;2022-07-04T16:22:29;1.48;;;0.45;;
47669;SDS011;33408;52.062;11.722;2022-07-04T16:24:55;3.25;;;0.50;;
47669;SDS011;33408;52.062;11.722;2022-07-04T16:27:24;3.75;;;0.85;;
47669;SDS011;33408;52.062;11.722;2022-07-04T16:29:50;0.73;;;0.43;;
47669;SDS011;33408;52.062;11.722;2022-07-04T16:32:17;1.80;;;0.55;;
47669;SDS011;33408;52.062;11.722;2022-07-04T16:34:43;5.57;;;0.63;;
47669;SDS011;33408;52.062;11.722;2022-07-04T16:37:12;1.30;;;0.50;;
47669;SDS011;33408;52.062;11.722;2022-07-04T16:39:38;1.48;;;0.43;;
47669;SDS011;33408;52.062;11.722;2022-07-04T16:42:05;2.60;;;0.38;;
47669;SDS011;33408;52.062;11.722;2022-07-04T16:44:31;3.03;;;0.68;;
47669;SDS011;33408;52.062;11.722;2022-07-04T16:46:58;2.80;;;0.70;;
47669;SDS011;33408;52.062;11.722;2022-07-04T16:49:25;1.67;;;0.70;;
47669;SDS011;33408;52.062;11.722;2022-07-04T16:51:51;2.25;;;0.60;;
47669;SDS011;33408;52.062;11.722;2022-07-04T16:54:19;2.42;;;0.85;;
47669;SDS011;33408;52.062;11.722;2022-07-04T16:56:46;1.23;;;0.52;;
47669;SDS011;33408;52.062;11.722;2022-07-04T16:59:12;2.08;;;0.90;;
47669;SDS011;33408;52.062;11.722;2022-07-04T17:01:39;2.17;;;0.73;;
47669;SDS011;33408;52.062;11.722;2022-07-04T17:04:05;1.63;;;0.55;;
47669;SDS011;33408;52.062;11.722;2022-07-04T17:06:32;2.72;;;0.57;;
47669;SDS011;33408;52.062;11.722;2022-07-04T17:08:59;2.42;;;0.80;;
47669;SDS011;33408;52.062;11.722;2022-07-04T17:11:27;2.15;;;0.50;;
47669;SDS011;33408;52.062;11.722;2022-07-04T17:13:53;1.73;;;0.70;;
47669;SDS011;33408;52.062;11.722;2022-07-04T17:16:20;2.03;;;0.40;;
47669;SDS011;33408;52.062;11.722;2022-07-04T17:18:46;2.03;;;0.68;;
47669;SDS011;33408;52.062;11.722;2022-07-04T17:21:13;3.22;;;0.45;;
47669;SDS011;33408;52.062;11.722;2022-07-04T17:23:40;4.22;;;0.73;;
47669;SDS011;33408;52.062;11.722;2022-07-04T17:26:08;1.83;;;0.70;;
47669;SDS011;33408;52.062;11.722;2022-07-04T17:28:36;1.75;;;0.60;;
47669;SDS011;33408;52.062;11.722;2022-07-04T17:31:03;0.45;;;0.32;;
47669;SDS011;33408;52.062;11.722;2022-07-04T17:33:29;1.45;;;0.50;;
47669;SDS011;33408;52.062;11.722;2022-07-04T17:35:56;2.25;;;0.80;;
47669;SDS011;33408;52.062;11.722;2022-07-04T17:38:23;2.00;;;0.43;;
47669;SDS011;33408;52.062;11.722;2022-07-04T17:40:49;3.17;;;0.80;;
47669;SDS011;33408;52.062;11.722;2022-07-04T17:43:30;2.55;;;0.57;;
47669;SDS011;33408;52.062;11.722;2022-07-04T17:45:58;2.70;;;0.50;;
47669;SDS011;33408;52.062;11.722;2022-07-04T17:48:24;1.98;;;0.80;;
47669;SDS011;33408;52.062;11.722;2022-07-04T17:50:51;1.70;;;0.52;;
47669;SDS011;33408;52.062;11.722;2022-07-04T17:53:18;0.93;;;0.57;;
47669;SDS011;33408;52.062;11.722;2022-07-04T17:55:44;2.05;;;0.50;;
47669;SDS011;33408;52.062;11.722;2022-07-04T17:58:15;2.58;;;0.60;;
47669;SDS011;33408;52.062;11.722;2022-07-04T18:00:42;2.30;;;0.88;;
47669;SDS011;33408;52.062;11.722;2022-07-04T18:03:10;2.33;;;0.50;;
47669;SDS011;33408;52.062;11.722;2022-07-04T18:05:36;3.03;;;0.70;;
47669;SDS011;33408;52.062;11.722;2022-07-04T18:08:03;1.85;;;0.43;;
47669;SDS011;33408;52.062;11.722;2022-07-04T18:10:30;2.17;;;0.70;;
47669;SDS011;33408;52.062;11.722;2022-07-04T18:12:57;4.15;;;0.57;;
47669;SDS011;33408;52.062;11.722;2022-07-04T18:15:23;1.95;;;0.60;;
47669;SDS011;33408;52.062;11.722;2022-07-04T18:17:51;1.50;;;0.55;;
47669;SDS011;33408;52.062;11.722;2022-07-04T18:20:19;1.65;;;0.65;;
47669;SDS011;33408;52.062;11.722;2022-07-04T18:22:46;1.65;;;0.57;;
47669;SDS011;33408;52.062;11.722;2022-07-04T18:25:12;3.03;;;0.60;;
47669;SDS011;33408;52.062;11.722;2022-07-04T18:27:39;2.95;;;0.73;;
47669;SDS011;33408;52.062;11.722;2022-07-04T18:30:06;1.52;;;0.80;;
47669;SDS011;33408;52.062;11.722;2022-07-04T18:32:33;1.27;;;0.52;;
47669;SDS011;33408;52.062;11.722;2022-07-04T18:35:00;2.53;;;0.75;;
47669;SDS011;33408;52.062;11.722;2022-07-04T18:37:30;2.33;;;0.68;;
47669;SDS011;33408;52.062;11.722;2022-07-04T18:39:57;1.15;;;0.73;;
47669;SDS011;33408;52.062;11.722;2022-07-04T18:42:23;2.10;;;0.70;;
47669;SDS011;33408;52.062;11.722;2022-07-04T18:45:08;6.90;;;1.02;;
47669;SDS011;33408;52.062;11.722;2022-07-04T18:47:36;2.78;;;0.82;;
47669;SDS011;33408;52.062;11.722;2022-07-04T18:50:03;1.90;;;0.65;;
47669;SDS011;33408;52.062;11.722;2022-07-04T18:52:31;0.85;;;0.45;;
47669;SDS011;33408;52.062;11.722;2022-07-04T18:54:58;1.65;;;0.55;;
47669;SDS011;33408;52.062;11.722;2022-07-04T18:57:24;1.88;;;0.60;;
47669;SDS011;33408;52.062;11.722;2022-07-04T18:59:52;1.90;;;0.52;;
47669;SDS011;33408;52.062;11.722;2022-07-04T19:02:20;2.83;;;0.88;;
47669;SDS011;33408;52.062;11.722;2022-07-04T19:04:47;2.28;;;0.63;;
47669;SDS011;33408;52.062;11.722;2022-07-04T19:07:14;4.03;;;1.13;;
47669;SDS011;33408;52.062;11.722;2022-07-04T19:09:42;3.72;;;0.90;;
47669;SDS011;33408;52.062;11.722;2022-07-04T19:12:08;2.42;;;0.65;;
47669;SDS011;33408;52.062;11.722;2022-07-04T19:14:35;5.95;;;1.52;;
47669;SDS011;33408;52.062;11.722;2022-07-04T19:17:02;3.85;;;0.70;;
47669;SDS011;33408;52.062;11.722;2022-07-04T19:19:29;3.50;;;0.80;;
47669;SDS011;33408;52.062;11.722;2022-07-04T19:21:55;2.20;;;0.60;;
47669;SDS011;33408;52.062;11.722;2022-07-04T19:24:22;10.60;;;1.38;;
47669;SDS011;33408;52.062;11.722;2022-07-04T19:26:50;1.73;;;0.80;;
47669;SDS011;33408;52.062;11.722;2022-07-04T19:29:16;2.63;;;0.77;;
47669;SDS011;33408;52.062;11.722;2022-07-04T19:31:43;2.75;;;0.95;;
47669;SDS011;33408;52.062;11.722;2022-07-04T19:34:10;4.75;;;0.98;;
47669;SDS011;33408;52.062;11.722;2022-07-04T19:36:36;4.15;;;1.08;;
47669;SDS011;33408;52.062;11.722;2022-07-04T19:39:03;7.30;;;0.77;;
47669;SDS011;33408;52.062;11.722;2022-07-04T19:41:30;6.75;;;1.48;;
47669;SDS011;33408;52.062;11.722;2022-07-04T19:43:58;4.65;;;0.88;;
47669;SDS011;33408;52.062;11.722;2022-07-04T19:46:25;8.07;;;1.27;;
47669;SDS011;33408;52.062;11.722;2022-07-04T19:48:51;7.00;;;1.10;;
47669;SDS011;33408;52.062;11.722;2022-07-04T19:51:18;2.85;;;0.75;;
47669;SDS011;33408;52.062;11.722;2022-07-04T19:53:45;9.38;;;1.50;;
47669;SDS011;33408;52.062;11.722;2022-07-04T19:56:11;3.00;;;0.82;;
47669;SDS011;33408;52.062;11.722;2022-07-04T19:58:38;2.47;;;0.82;;
47669;SDS011;33408;52.062;11.722;2022-07-04T20:01:09;11.68;;;1.10;;
47669;SDS011;33408;52.062;11.722;2022-07-04T20:03:37;4.60;;;1.30;;
47669;SDS011;33408;52.062;11.722;2022-07-04T20:06:04;3.65;;;1.10;;
47669;SDS011;33408;52.062;11.722;2022-07-04T20:08:30;7.68;;;0.93;;
47669;SDS011;33408;52.062;11.722;2022-07-04T20:10:57;5.43;;;0.88;;
47669;SDS011;33408;52.062;11.722;2022-07-04T20:13:28;3.80;;;1.00;;
47669;SDS011;33408;52.062;11.722;2022-07-04T20:15:54;4.95;;;0.88;;
47669;SDS011;33408;52.062;11.722;2022-07-04T20:18:23;2.95;;;1.00;;
47669;SDS011;33408;52.062;11.722;2022-07-04T20:20:50;7.88;;;1.15;;
47669;SDS011;33408;52.062;11.722;2022-07-04T20:23:16;6.20;;;1.25;;
47669;SDS011;33408;52.062;11.722;2022-07-04T20:25:43;4.43;;;1.10;;
47669;SDS011;33408;52.062;11.722;2022-07-04T20:28:09;4.28;;;0.77;;
47669;SDS011;33408;52.062;11.722;2022-07-04T20:30:37;5.68;;;0.95;;
47669;SDS011;33408;52.062;11.722;2022-07-04T20:33:03;4.35;;;1.23;;
47669;SDS011;33408;52.062;11.722;2022-07-04T20:35:31;5.40;;;1.10;;
47669;SDS011;33408;52.062;11.722;2022-07-04T20:37:58;1.75;;;0.80;;
47669;SDS011;33408;52.062;11.722;2022-07-04T20:40:24;2.85;;;0.70;;
47669;SDS011;33408;52.062;11.722;2022-07-04T20:42:51;4.82;;;1.25;;
47669;SDS011;33408;52.062;11.722;2022-07-04T20:45:18;3.55;;;0.82;;
47669;SDS011;33408;52.062;11.722;2022-07-04T20:47:44;3.05;;;0.70;;
47669;SDS011;33408;52.062;11.722;2022-07-04T20:50:11;3.65;;;0.90;;
47669;SDS011;33408;52.062;11.722;2022-07-04T20:52:39;3.22;;;1.10;;
47669;SDS011;33408;52.062;11.722;2022-07-04T20:55:06;5.15;;;1.00;;
47669;SDS011;33408;52.062;11.722;2022-07-04T20:57:34;1.33;;;0.70;;
47669;SDS011;33408;52.062;11.722;2022-07-04T21:00:00;4.45;;;1.15;;
47669;SDS011;33408;52.062;11.722;2022-07-04T21:02:28;2.55;;;1.00;;
47669;SDS011;33408;52.062;11.722;2022-07-04T21:04:54;3.85;;;0.95;;
47669;SDS011;33408;52.062;11.722;2022-07-04T21:07:21;1.92;;;0.80;;
47669;SDS011;33408;52.062;11.722;2022-07-04T21:09:49;5.85;;;1.38;;
47669;SDS011;33408;52.062;11.722;2022-07-04T21:12:16;5.18;;;0.90;;
47669;SDS011;33408;52.062;11.722;2022-07-04T21:14:42;1.85;;;1.05;;
47669;SDS011;33408;52.062;11.722;2022-07-04T21:17:09;3.65;;;1.08;;
47669;SDS011;33408;52.062;11.722;2022-07-04T21:19:35;7.45;;;1.20;;
47669;SDS011;33408;52.062;11.722;2022-07-04T21:22:02;4.30;;;1.10;;
47669;SDS011;33408;52.062;11.722;2022-07-04T21:24:29;1.88;;;1.05;;
47669;SDS011;33408;52.062;11.722;2022-07-04T21:26:57;4.43;;;1.33;;
47669;SDS011;33408;52.062;11.722;2022-07-04T21:29:23;4.10;;;1.20;;
47669;SDS011;33408;52.062;11.722;2022-07-04T21:31:50;7.50;;;1.40;;
47669;SDS011;33408;52.062;11.722;2022-07-04T21:34:16;7.90;;;1.75;;
47669;SDS011;33408;52.062;11.722;2022-07-04T21:36:43;5.28;;;1.20;;
47669;SDS011;33408;52.062;11.722;2022-07-04T21:39:10;5.70;;;1.25;;
47669;SDS011;33408;52.062;11.722;2022-07-04T21:41:37;2.70;;;1.23;;
47669;SDS011;33408;52.062;11.722;2022-07-04T21:44:05;8.93;;;1.45;;
47669;SDS011;33408;52.062;11.722;2022-07-04T21:46:31;4.68;;;1.20;;
47669;SDS011;33408;52.062;11.722;2022-07-04T21:48:58;4.53;;;1.40;;
47669;SDS011;33408;52.062;11.722;2022-07-04T21:51:25;4.00;;;1.20;;
47669;SDS011;33408;52.062;11.722;2022-07-04T21:53:53;1.48;;;0.77;;
47669;SDS011;33408;52.062;11.722;2022-07-04T21:56:19;3.55;;;1.00;;
47669;SDS011;33408;52.062;11.722;2022-07-04T21:58:46;10.20;;;1.48;;
47669;SDS011;33408;52.062;11.722;2022-07-04T22:01:14;6.82;;;0.90;;
47669;SDS011;33408;52.062;11.722;2022-07-04T22:03:41;5.18;;;1.40;;
47669;SDS011;33408;52.062;11.722;2022-07-04T22:06:08;5.90;;;1.13;;
47669;SDS011;33408;52.062;11.722;2022-07-04T22:08:34;7.32;;;1.35;;
47669;SDS011;33408;52.062;11.722;2022-07-04T22:11:01;4.93;;;1.13;;
47669;SDS011;33408;52.062;11.722;2022-07-04T22:13:29;6.40;;;1.50;;
47669;SDS011;33408;52.062;11.722;2022-07-04T22:15:55;4.60;;;1.30;;
47669;SDS011;33408;52.062;11.722;2022-07-04T22:18:24;4.82;;;0.98;;
47669;SDS011;33408;52.062;11.722;2022-07-04T22:20:50;2.85;;;1.10;;
47669;SDS011;33408;52.062;11.722;2022-07-04T22:23:17;6.38;;;1.50;;
47669;SDS011;33408;52.062;11.722;2022-07-04T22:25:44;3.05;;;1.52;;
47669;SDS011;33408;52.062;11.722;2022-07-04T22:28:11;3.90;;;1.38;;
47669;SDS011;33408;52.062;11.722;2022-07-04T22:30:38;5.68;;;1.10;;
47669;SDS011;33408;52.062;11.722;2022-07-04T22:33:04;4.70;;;1.50;;
47669;SDS011;33408;52.062;11.722;2022-07-04T22:35:32;3.05;;;1.48;;
47669;SDS011;33408;52.062;11.722;2022-07-04T22:37:59;5.88;;;1.60;;
47669;SDS011;33408;52.062;11.722;2022-07-04T22:40:25;5.05;;;1.20;;
47669;SDS011;33408;52.062;11.722;2022-07-04T22:42:52;2.65;;;1.13;;
47669;SDS011;33408;52.062;11.722;2022-07-04T22:45:19;3.55;;;1.20;;
47669;SDS011;33408;52.062;11.722;2022-07-04T22:47:45;4.32;;;1.30;;
47669;SDS011;33408;52.062;11.722;2022-07-04T22:50:12;5.00;;;1.08;;
47669;SDS011;33408;52.062;11.722;2022-07-04T22:52:40;2.03;;;0.93;;
47669;SDS011;33408;52.062;11.722;2022-07-04T22:55:08;3.88;;;1.25;;
47669;SDS011;33408;52.062;11.722;2022-07-04T22:57:35;3.15;;;1.33;;
47669;SDS011;33408;52.062;11.722;2022-07-04T23:00:03;6.15;;;1.35;;
47669;SDS011;33408;52.062;11.722;2022-07-04T23:02:31;4.15;;;1.10;;
47669;SDS011;33408;52.062;11.722;2022-07-04T23:04:58;2.95;;;1.45;;
47669;SDS011;33408;52.062;11.722;2022-07-04T23:07:25;2.72;;;1.02;;
47669;SDS011;33408;52.062;11.722;2022-07-04T23:09:53;5.90;;;1.70;;
47669;SDS011;33408;52.062;11.722;2022-07-04T23:12:19;6.13;;;1.67;;
47669;SDS011;33408;52.062;11.722;2022-07-04T23:14:47;6.80;;;1.30;;
47669;SDS011;33408;52.062;11.722;2022-07-04T23:17:14;4.80;;;1.52;;
47669;SDS011;33408;52.062;11.722;2022-07-04T23:19:40;3.13;;;1.23;;
47669;SDS011;33408;52.062;11.722;2022-07-04T23:22:07;4.97;;;1.20;;
47669;SDS011;33408;52.062;11.722;2022-07-04T23:24:34;3.15;;;1.20;;
47669;SDS011;33408;52.062;11.722;2022-07-04T23:27:02;2.08;;;1.00;;
47669;SDS011;33408;52.062;11.722;2022-07-04T23:29:30;2.80;;;1.33;;
47669;SDS011;33408;52.062;11.722;2022-07-04T23:31:56;10.27;;;1.80;;
47669;SDS011;33408;52.062;11.722;2022-07-04T23:34:23;3.40;;;1.42;;
47669;SDS011;33408;52.062;11.722;2022-07-04T23:36:49;4.53;;;1.40;;
47669;SDS011;33408;52.062;11.722;2022-07-04T23:39:16;3.28;;;1.52;;
47669;SDS011;33408;52.062;11.722;2022-07-04T23:41:43;3.40;;;1.63;;
47669;SDS011;33408;52.062;11.722;2022-07-04T23:44:11;4.40;;;1.15;;
47669;SDS011;33408;52.062;11.722;2022-07-04T23:46:38;3.05;;;1.23;;
47669;SDS011;33408;52.062;11.722;2022-07-04T23:49:05;2.88;;;1.15;;
47669;SDS011;33408;52.062;11.722;2022-07-04T23:51:34;3.10;;;1.20;;
47669;SDS011;33408;52.062;11.722;2022-07-04T23:54:01;3.97;;;1.42;;
47669;SDS011;33408;52.062;11.722;2022-07-04T23:56:28;3.65;;;1.50;;
47669;SDS011;33408;52.062;11.722;2022-07-04T23:58:54;3.38;;;1.60;;
